sensor_id;sensor_type;location;lat;lon;timestamp;pressure;altitude;pressure_sealevel;temperature;humidity
47716;BME280;33476;50.984;3.538;2023-05-24T00:00:46;102610.81;;;12.70;57.73
47716;BME280;33476;50.984;3.538;2023-05-24T00:03:12;102608.25;;;12.69;57.56
47716;BME280;33476;50.984;3.538;2023-05-24T00:05:39;102611.81;;;12.66;57.56
47716;BME280;33476;50.984;3.538;2023-05-24T00:08:05;102608.34;;;12.64;57.64
47716;BME280;33476;50.984;3.538;2023-05-24T00:10:30;102618.03;;;12.62;57.43
47716;BME280;33476;50.984;3.538;2023-05-24T00:12:56;102620.81;;;12.56;57.64
47716;BME280;33476;50.984;3.538;2023-05-24T00:15:21;102620.06;;;12.52;57.34
47716;BME280;33476;50.984;3.538;2023-05-24T00:17:46;102623.63;;;12.50;57.63
47716;BME280;33476;50.984;3.538;2023-05-24T00:20:12;102622.75;;;12.49;57.82
47716;BME280;33476;50.984;3.538;2023-05-24T00:22:38;102625.47;;;12.46;58.06
47716;BME280;33476;50.984;3.538;2023-05-24T00:25:04;102623.78;;;12.44;58.07
47716;BME280;33476;50.984;3.538;2023-05-24T00:27:30;102615.13;;;12.42;58.07
47716;BME280;33476;50.984;3.538;2023-05-24T00:29:56;102608.97;;;12.41;58.06
47716;BME280;33476;50.984;3.538;2023-05-24T00:32:21;102608.97;;;12.43;58.18
47716;BME280;33476;50.984;3.538;2023-05-24T00:34:46;102603.78;;;12.40;57.92
47716;BME280;33476;50.984;3.538;2023-05-24T00:37:12;102599.50;;;12.37;57.95
47716;BME280;33476;50.984;3.538;2023-05-24T00:39:37;102599.56;;;12.35;58.32
47716;BME280;33476;50.984;3.538;2023-05-24T00:42:03;102605.69;;;12.34;58.08
47716;BME280;33476;50.984;3.538;2023-05-24T00:44:29;102603.13;;;12.33;58.15
47716;BME280;33476;50.984;3.538;2023-05-24T00:46:55;102596.13;;;12.32;58.18
47716;BME280;33476;50.984;3.538;2023-05-24T00:49:21;102592.69;;;12.30;57.92
47716;BME280;33476;50.984;3.538;2023-05-24T00:51:48;102593.56;;;12.30;57.79
47716;BME280;33476;50.984;3.538;2023-05-24T00:54:14;102590.13;;;12.28;58.00
47716;BME280;33476;50.984;3.538;2023-05-24T00:56:43;102592.84;;;12.25;58.15
47716;BME280;33476;50.984;3.538;2023-05-24T00:59:09;102590.28;;;12.22;57.89
47716;BME280;33476;50.984;3.538;2023-05-24T01:01:34;102589.56;;;12.17;58.20
47716;BME280;33476;50.984;3.538;2023-05-24T01:04:01;102591.38;;;12.14;58.35
47716;BME280;33476;50.984;3.538;2023-05-24T01:06:27;102591.44;;;12.12;58.28
47716;BME280;33476;50.984;3.538;2023-05-24T01:14:28;102582.09;;;12.02;58.37
47716;BME280;33476;50.984;3.538;2023-05-24T01:17:08;102584.00;;;11.95;58.43
47716;BME280;33476;50.984;3.538;2023-05-24T01:24:54;102583.16;;;11.95;58.42
47716;BME280;33476;50.984;3.538;2023-05-24T01:27:23;102583.25;;;11.92;58.53
47716;BME280;33476;50.984;3.538;2023-05-24T01:29:49;102588.47;;;11.92;58.40
47716;BME280;33476;50.984;3.538;2023-05-24T01:32:18;102590.34;;;11.87;58.28
47716;BME280;33476;50.984;3.538;2023-05-24T01:34:44;102577.34;;;11.82;58.56
47716;BME280;33476;50.984;3.538;2023-05-24T01:37:09;102583.50;;;11.79;58.43
47716;BME280;33476;50.984;3.538;2023-05-24T01:39:35;102585.34;;;11.76;58.55
47716;BME280;33476;50.984;3.538;2023-05-24T01:44:38;102580.34;;;11.67;58.86
47716;BME280;33476;50.984;3.538;2023-05-24T01:47:27;102576.97;;;11.62;59.17
47716;BME280;33476;50.984;3.538;2023-05-24T01:50:06;102584.81;;;11.62;58.94
47716;BME280;33476;50.984;3.538;2023-05-24T01:52:36;102572.59;;;11.62;58.71
47716;BME280;33476;50.984;3.538;2023-05-24T01:55:03;102577.06;;;11.59;58.74
47716;BME280;33476;50.984;3.538;2023-05-24T01:57:29;102581.41;;;11.58;58.73
47716;BME280;33476;50.984;3.538;2023-05-24T01:59:56;102587.66;;;11.52;58.70
47716;BME280;33476;50.984;3.538;2023-05-24T02:02:22;102584.22;;;11.49;58.66
47716;BME280;33476;50.984;3.538;2023-05-24T02:04:48;102575.63;;;11.45;58.67
47716;BME280;33476;50.984;3.538;2023-05-24T02:07:13;102577.28;;;11.48;58.66
47716;BME280;33476;50.984;3.538;2023-05-24T02:09:38;102577.38;;;11.45;58.59
47716;BME280;33476;50.984;3.538;2023-05-24T02:12:04;102576.56;;;11.41;58.68
47716;BME280;33476;50.984;3.538;2023-05-24T02:14:30;102583.69;;;11.36;58.93
47716;BME280;33476;50.984;3.538;2023-05-24T02:16:55;102577.63;;;11.33;59.07
47716;BME280;33476;50.984;3.538;2023-05-24T02:19:23;102579.44;;;11.31;59.05
47716;BME280;33476;50.984;3.538;2023-05-24T02:21:49;102575.88;;;11.33;59.00
47716;BME280;33476;50.984;3.538;2023-05-24T02:24:15;102573.25;;;11.35;58.81
47716;BME280;33476;50.984;3.538;2023-05-24T02:26:43;102567.13;;;11.36;59.06
47716;BME280;33476;50.984;3.538;2023-05-24T02:29:08;102571.59;;;11.31;58.99
47716;BME280;33476;50.984;3.538;2023-05-24T02:31:33;102575.09;;;11.30;58.85
47716;BME280;33476;50.984;3.538;2023-05-24T02:33:59;102575.19;;;11.27;59.12
47716;BME280;33476;50.984;3.538;2023-05-24T02:36:25;102575.19;;;11.25;59.11
47716;BME280;33476;50.984;3.538;2023-05-24T02:38:50;102577.88;;;11.22;59.25
47716;BME280;33476;50.984;3.538;2023-05-24T02:41:16;102585.81;;;11.19;59.11
47716;BME280;33476;50.984;3.538;2023-05-24T02:43:45;102577.16;;;11.15;59.34
47716;BME280;33476;50.984;3.538;2023-05-24T02:46:12;102578.88;;;11.16;59.26
47716;BME280;33476;50.984;3.538;2023-05-24T02:48:38;102579.81;;;11.14;59.10
47716;BME280;33476;50.984;3.538;2023-05-24T02:51:04;102571.97;;;11.14;59.46
47716;BME280;33476;50.984;3.538;2023-05-24T02:53:30;102567.69;;;11.11;59.40
47716;BME280;33476;50.984;3.538;2023-05-24T02:55:56;102568.63;;;11.07;59.40
47716;BME280;33476;50.984;3.538;2023-05-24T02:58:22;102572.19;;;11.05;59.48
47716;BME280;33476;50.984;3.538;2023-05-24T03:00:47;102563.50;;;11.03;59.50
47716;BME280;33476;50.984;3.538;2023-05-24T03:03:13;102573.97;;;11.03;59.37
47716;BME280;33476;50.984;3.538;2023-05-24T03:05:38;102574.06;;;10.98;59.42
47716;BME280;33476;50.984;3.538;2023-05-24T03:08:04;102569.75;;;10.95;59.48
47716;BME280;33476;50.984;3.538;2023-05-24T03:10:30;102568.94;;;10.92;59.81
47716;BME280;33476;50.984;3.538;2023-05-24T03:12:55;102568.13;;;10.90;59.79
47716;BME280;33476;50.984;3.538;2023-05-24T03:15:21;102565.56;;;10.88;59.89
47716;BME280;33476;50.984;3.538;2023-05-24T03:17:46;102562.13;;;10.86;59.79
47716;BME280;33476;50.984;3.538;2023-05-24T03:20:12;102565.56;;;10.88;59.50
47716;BME280;33476;50.984;3.538;2023-05-24T03:22:37;102568.13;;;10.90;59.55
47716;BME280;33476;50.984;3.538;2023-05-24T03:25:03;102562.09;;;10.88;59.36
47716;BME280;33476;50.984;3.538;2023-05-24T03:27:28;102572.50;;;10.89;59.27
47716;BME280;33476;50.984;3.538;2023-05-24T03:29:54;102568.16;;;10.88;59.35
47716;BME280;33476;50.984;3.538;2023-05-24T03:32:19;102569.06;;;10.87;59.19
47716;BME280;33476;50.984;3.538;2023-05-24T03:34:45;102578.72;;;10.84;59.52
47716;BME280;33476;50.984;3.538;2023-05-24T03:37:10;102573.63;;;10.78;59.64
47716;BME280;33476;50.984;3.538;2023-05-24T03:39:36;102569.31;;;10.75;60.09
47716;BME280;33476;50.984;3.538;2023-05-24T03:42:01;102573.63;;;10.78;59.77
47716;BME280;33476;50.984;3.538;2023-05-24T03:44:26;102568.38;;;10.79;59.67
47716;BME280;33476;50.984;3.538;2023-05-24T03:46:52;102580.50;;;10.82;59.55
47716;BME280;33476;50.984;3.538;2023-05-24T03:49:17;102577.94;;;10.80;59.81
47716;BME280;33476;50.984;3.538;2023-05-24T03:51:42;102578.00;;;10.77;59.85
47716;BME280;33476;50.984;3.538;2023-05-24T03:54:08;102580.63;;;10.77;59.90
47716;BME280;33476;50.984;3.538;2023-05-24T03:56:33;102579.81;;;10.74;59.93
47716;BME280;33476;50.984;3.538;2023-05-24T03:58:59;102579.75;;;10.77;59.79
47716;BME280;33476;50.984;3.538;2023-05-24T04:01:27;102580.66;;;10.74;59.82
47716;BME280;33476;50.984;3.538;2023-05-24T04:03:56;102570.28;;;10.71;60.09
47716;BME280;33476;50.984;3.538;2023-05-24T04:06:21;102567.66;;;10.71;59.97
47716;BME280;33476;50.984;3.538;2023-05-24T04:08:53;102574.69;;;10.69;60.14
47716;BME280;33476;50.984;3.538;2023-05-24T04:11:19;102575.53;;;10.69;60.36
47716;BME280;33476;50.984;3.538;2023-05-24T04:13:46;102571.91;;;10.75;60.34
47716;BME280;33476;50.984;3.538;2023-05-24T04:16:11;102571.91;;;10.77;60.36
47716;BME280;33476;50.984;3.538;2023-05-24T04:18:38;102586.63;;;10.81;60.27
47716;BME280;33476;50.984;3.538;2023-05-24T04:21:03;102581.38;;;10.82;60.09
47716;BME280;33476;50.984;3.538;2023-05-24T04:23:28;102578.78;;;10.81;60.26
47716;BME280;33476;50.984;3.538;2023-05-24T04:25:54;102577.88;;;10.82;60.39
47716;BME280;33476;50.984;3.538;2023-05-24T04:28:19;102578.78;;;10.81;60.44
47716;BME280;33476;50.984;3.538;2023-05-24T04:30:46;102573.47;;;10.85;60.36
47716;BME280;33476;50.984;3.538;2023-05-24T04:33:12;102581.28;;;10.87;60.67
47716;BME280;33476;50.984;3.538;2023-05-24T04:35:39;102585.56;;;10.89;60.84
47716;BME280;33476;50.984;3.538;2023-05-24T04:38:05;102584.69;;;10.90;60.85
47716;BME280;33476;50.984;3.538;2023-05-24T04:40:31;102587.25;;;10.93;60.85
47716;BME280;33476;50.984;3.538;2023-05-24T04:42:57;102589.78;;;10.96;61.30
47716;BME280;33476;50.984;3.538;2023-05-24T04:45:22;102582.72;;;11.02;61.08
47716;BME280;33476;50.984;3.538;2023-05-24T04:47:49;102575.56;;;11.08;60.94
47716;BME280;33476;50.984;3.538;2023-05-24T04:50:14;102571.03;;;11.16;60.86
47716;BME280;33476;50.984;3.538;2023-05-24T04:52:40;102575.28;;;11.22;61.09
47716;BME280;33476;50.984;3.538;2023-05-24T04:55:05;102578.66;;;11.27;61.18
47716;BME280;33476;50.984;3.538;2023-05-24T04:57:31;102570.56;;;11.38;61.18
47716;BME280;33476;50.984;3.538;2023-05-24T04:59:57;102570.38;;;11.45;61.30
47716;BME280;33476;50.984;3.538;2023-05-24T05:02:22;102568.41;;;11.55;61.52
47716;BME280;33476;50.984;3.538;2023-05-24T05:04:47;102566.41;;;11.65;61.44
47716;BME280;33476;50.984;3.538;2023-05-24T05:07:13;102561.84;;;11.73;61.67
47716;BME280;33476;50.984;3.538;2023-05-24T05:09:38;102572.97;;;11.82;61.87
47716;BME280;33476;50.984;3.538;2023-05-24T05:12:04;102575.50;;;11.87;62.21
47716;BME280;33476;50.984;3.538;2023-05-24T05:14:29;102565.78;;;11.91;62.56
47716;BME280;33476;50.984;3.538;2023-05-24T05:16:55;102565.59;;;12.00;62.63
47716;BME280;33476;50.984;3.538;2023-05-24T05:19:20;102561.81;;;12.10;62.46
47716;BME280;33476;50.984;3.538;2023-05-24T05:21:45;102554.59;;;12.18;62.78
47716;BME280;33476;50.984;3.538;2023-05-24T05:24:11;102558.66;;;12.30;62.79
47716;BME280;33476;50.984;3.538;2023-05-24T05:26:36;102564.53;;;12.38;62.49
47716;BME280;33476;50.984;3.538;2023-05-24T05:29:02;102570.41;;;12.46;62.66
47716;BME280;33476;50.984;3.538;2023-05-24T05:31:28;102572.72;;;12.57;62.54
47716;BME280;33476;50.984;3.538;2023-05-24T05:33:53;102554.16;;;12.64;62.64
47716;BME280;33476;50.984;3.538;2023-05-24T05:36:19;102547.00;;;12.71;62.31
47716;BME280;33476;50.984;3.538;2023-05-24T05:38:44;102546.00;;;12.75;62.35
47716;BME280;33476;50.984;3.538;2023-05-24T05:41:10;102554.69;;;12.77;62.43
47716;BME280;33476;50.984;3.538;2023-05-24T05:43:37;102552.75;;;12.82;62.97
47716;BME280;33476;50.984;3.538;2023-05-24T05:46:02;102557.88;;;12.87;62.87
47716;BME280;33476;50.984;3.538;2023-05-24T05:48:27;102560.22;;;12.96;62.80
47716;BME280;33476;50.984;3.538;2023-05-24T05:50:53;102555.63;;;13.04;63.02
47716;BME280;33476;50.984;3.538;2023-05-24T05:53:18;102565.69;;;13.18;62.82
47716;BME280;33476;50.984;3.538;2023-05-24T05:55:43;102560.25;;;13.26;62.51
47716;BME280;33476;50.984;3.538;2023-05-24T05:58:09;102567.09;;;13.30;62.82
47716;BME280;33476;50.984;3.538;2023-05-24T06:00:36;102571.41;;;13.32;62.72
47716;BME280;33476;50.984;3.538;2023-05-24T06:03:01;102575.59;;;13.38;62.54
47716;BME280;33476;50.984;3.538;2023-05-24T06:05:26;102579.69;;;13.46;62.64
47716;BME280;33476;50.984;3.538;2023-05-24T06:07:52;102578.53;;;13.55;62.24
47716;BME280;33476;50.984;3.538;2023-05-24T06:10:17;102572.94;;;13.66;62.12
47716;BME280;33476;50.984;3.538;2023-05-24T06:12:43;102578.81;;;13.74;61.95
47716;BME280;33476;50.984;3.538;2023-05-24T06:15:08;102572.38;;;13.83;61.65
47716;BME280;33476;50.984;3.538;2023-05-24T06:17:35;102578.97;;;13.94;61.60
47716;BME280;33476;50.984;3.538;2023-05-24T06:20:02;102582.09;;;14.05;61.52
47716;BME280;33476;50.984;3.538;2023-05-24T06:22:37;102584.03;;;14.25;61.23
47716;BME280;33476;50.984;3.538;2023-05-24T06:25:04;102584.69;;;14.32;60.99
47716;BME280;33476;50.984;3.538;2023-05-24T06:27:29;102585.44;;;14.36;60.82
47716;BME280;33476;50.984;3.538;2023-05-24T06:29:55;102596.44;;;14.47;61.22
47716;BME280;33476;50.984;3.538;2023-05-24T06:32:20;102589.09;;;14.56;61.03
47716;BME280;33476;50.984;3.538;2023-05-24T06:34:46;102588.69;;;14.67;60.68
47716;BME280;33476;50.984;3.538;2023-05-24T06:37:11;102582.59;;;14.67;60.80
47716;BME280;33476;50.984;3.538;2023-05-24T06:39:39;102602.50;;;14.74;60.49
47716;BME280;33476;50.984;3.538;2023-05-24T06:42:05;102591.63;;;14.83;60.71
47716;BME280;33476;50.984;3.538;2023-05-24T06:44:30;102584.38;;;14.89;60.77
47716;BME280;33476;50.984;3.538;2023-05-24T06:47:01;102591.06;;;14.97;60.58
47716;BME280;33476;50.984;3.538;2023-05-24T06:49:27;102589.94;;;15.04;60.36
47716;BME280;33476;50.984;3.538;2023-05-24T06:51:53;102595.88;;;15.09;60.19
47716;BME280;33476;50.984;3.538;2023-05-24T06:54:18;102594.91;;;15.11;60.36
47716;BME280;33476;50.984;3.538;2023-05-24T06:56:44;102585.91;;;15.17;60.04
47716;BME280;33476;50.984;3.538;2023-05-24T06:59:09;102585.78;;;15.20;59.94
47716;BME280;33476;50.984;3.538;2023-05-24T07:01:35;102593.59;;;15.23;59.59
47716;BME280;33476;50.984;3.538;2023-05-24T07:04:04;102596.88;;;15.28;59.42
47716;BME280;33476;50.984;3.538;2023-05-24T07:06:30;102590.59;;;15.32;59.79
47716;BME280;33476;50.984;3.538;2023-05-24T07:08:57;102586.91;;;15.36;59.62
47716;BME280;33476;50.984;3.538;2023-05-24T07:11:22;102590.16;;;15.43;59.51
47716;BME280;33476;50.984;3.538;2023-05-24T07:13:48;102595.25;;;15.48;59.36
47716;BME280;33476;50.984;3.538;2023-05-24T07:16:13;102595.84;;;15.54;59.32
47716;BME280;33476;50.984;3.538;2023-05-24T07:18:39;102592.06;;;15.61;59.12
47716;BME280;33476;50.984;3.538;2023-05-24T07:21:05;102587.41;;;15.68;59.21
47716;BME280;33476;50.984;3.538;2023-05-24T07:23:31;102596.84;;;15.73;58.50
47716;BME280;33476;50.984;3.538;2023-05-24T07:25:56;102600.28;;;15.76;58.51
47716;BME280;33476;50.984;3.538;2023-05-24T07:28:21;102597.44;;;15.80;58.59
47716;BME280;33476;50.984;3.538;2023-05-24T07:30:47;102601.59;;;15.86;58.62
47716;BME280;33476;50.984;3.538;2023-05-24T07:33:12;102602.38;;;15.88;58.18
47716;BME280;33476;50.984;3.538;2023-05-24T07:35:38;102596.06;;;15.92;58.22
47716;BME280;33476;50.984;3.538;2023-05-24T07:38:03;102593.22;;;15.96;58.29
47716;BME280;33476;50.984;3.538;2023-05-24T07:40:29;102593.03;;;16.01;58.08
47716;BME280;33476;50.984;3.538;2023-05-24T07:42:54;102602.53;;;16.05;58.01
47716;BME280;33476;50.984;3.538;2023-05-24T07:45:20;102597.13;;;16.08;57.84
47716;BME280;33476;50.984;3.538;2023-05-24T07:47:45;102599.56;;;16.13;57.45
47716;BME280;33476;50.984;3.538;2023-05-24T07:50:10;102594.03;;;16.19;57.46
47716;BME280;33476;50.984;3.538;2023-05-24T07:52:36;102594.63;;;16.25;57.30
47716;BME280;33476;50.984;3.538;2023-05-24T07:55:03;102591.75;;;16.32;57.24
47716;BME280;33476;50.984;3.538;2023-05-24T07:57:29;102589.81;;;16.35;56.95
47716;BME280;33476;50.984;3.538;2023-05-24T07:59:54;102595.81;;;16.39;57.07
47716;BME280;33476;50.984;3.538;2023-05-24T08:02:19;102599.16;;;16.42;57.29
47716;BME280;33476;50.984;3.538;2023-05-24T08:04:45;102589.31;;;16.46;57.15
47716;BME280;33476;50.984;3.538;2023-05-24T08:07:13;102592.03;;;16.44;56.54
47716;BME280;33476;50.984;3.538;2023-05-24T08:09:38;102595.66;;;16.42;56.70
47716;BME280;33476;50.984;3.538;2023-05-24T08:12:05;102598.09;;;16.46;56.50
47716;BME280;33476;50.984;3.538;2023-05-24T08:14:31;102600.38;;;16.54;55.97
47716;BME280;33476;50.984;3.538;2023-05-24T08:16:56;102600.03;;;16.62;55.54
47716;BME280;33476;50.984;3.538;2023-05-24T08:19:22;102603.28;;;16.68;55.75
47716;BME280;33476;50.984;3.538;2023-05-24T08:21:48;102602.19;;;16.74;55.57
47716;BME280;33476;50.984;3.538;2023-05-24T08:24:14;102599.28;;;16.80;55.02
47716;BME280;33476;50.984;3.538;2023-05-24T08:26:39;102599.19;;;16.81;54.17
47716;BME280;33476;50.984;3.538;2023-05-24T08:29:04;102598.34;;;16.81;54.57
47716;BME280;33476;50.984;3.538;2023-05-24T08:31:30;102607.38;;;16.75;54.55
47716;BME280;33476;50.984;3.538;2023-05-24T08:33:57;102604.81;;;16.74;54.33
47716;BME280;33476;50.984;3.538;2023-05-24T08:36:23;102600.31;;;16.76;54.10
47716;BME280;33476;50.984;3.538;2023-05-24T08:38:48;102600.13;;;16.80;53.61
47716;BME280;33476;50.984;3.538;2023-05-24T08:41:14;102600.16;;;16.79;53.81
47716;BME280;33476;50.984;3.538;2023-05-24T08:43:41;102598.25;;;16.82;53.70
47716;BME280;33476;50.984;3.538;2023-05-24T08:46:06;102598.88;;;16.88;54.09
47716;BME280;33476;50.984;3.538;2023-05-24T08:48:34;102604.16;;;16.88;53.73
47716;BME280;33476;50.984;3.538;2023-05-24T08:51:05;102599.81;;;16.87;53.62
47716;BME280;33476;50.984;3.538;2023-05-24T08:53:32;102598.00;;;16.89;53.72
47716;BME280;33476;50.984;3.538;2023-05-24T08:56:00;102599.03;;;16.84;53.56
47716;BME280;33476;50.984;3.538;2023-05-24T08:58:28;102597.41;;;16.82;53.47
47716;BME280;33476;50.984;3.538;2023-05-24T09:00:57;102602.41;;;16.88;53.23
47716;BME280;33476;50.984;3.538;2023-05-24T09:03:23;102601.19;;;16.95;52.97
47716;BME280;33476;50.984;3.538;2023-05-24T09:05:49;102598.41;;;16.98;52.77
47716;BME280;33476;50.984;3.538;2023-05-24T09:08:15;102604.28;;;17.05;52.82
47716;BME280;33476;50.984;3.538;2023-05-24T09:10:43;102601.25;;;17.12;52.49
47716;BME280;33476;50.984;3.538;2023-05-24T09:13:09;102610.59;;;17.20;52.44
47716;BME280;33476;50.984;3.538;2023-05-24T09:15:35;102603.31;;;17.25;51.87
47716;BME280;33476;50.984;3.538;2023-05-24T09:18:00;102608.59;;;17.25;51.92
47716;BME280;33476;50.984;3.538;2023-05-24T09:20:26;102599.75;;;17.26;51.87
47716;BME280;33476;50.984;3.538;2023-05-24T09:22:52;102602.19;;;17.30;51.79
47716;BME280;33476;50.984;3.538;2023-05-24T09:25:18;102596.13;;;17.46;51.39
47716;BME280;33476;50.984;3.538;2023-05-24T09:27:49;102595.22;;;17.47;50.67
47716;BME280;33476;50.984;3.538;2023-05-24T09:30:15;102592.06;;;17.57;50.44
47716;BME280;33476;50.984;3.538;2023-05-24T09:32:53;102596.19;;;17.63;50.42
47716;BME280;33476;50.984;3.538;2023-05-24T09:35:19;102589.28;;;17.78;49.60
47716;BME280;33476;50.984;3.538;2023-05-24T09:37:44;102589.63;;;17.89;49.51
47716;BME280;33476;50.984;3.538;2023-05-24T09:40:18;102586.91;;;18.08;50.05
47716;BME280;33476;50.984;3.538;2023-05-24T09:42:46;102585.25;;;18.22;49.09
47716;BME280;33476;50.984;3.538;2023-05-24T09:45:15;102584.50;;;18.36;48.76
47716;BME280;33476;50.984;3.538;2023-05-24T09:47:42;102578.28;;;18.55;48.25
47716;BME280;33476;50.984;3.538;2023-05-24T09:50:14;102575.50;;;18.73;48.41
47716;BME280;33476;50.984;3.538;2023-05-24T09:52:40;102568.34;;;18.91;47.42
47716;BME280;33476;50.984;3.538;2023-05-24T09:55:17;102563.81;;;18.93;46.64
47716;BME280;33476;50.984;3.538;2023-05-24T09:57:44;102566.97;;;19.00;46.87
47716;BME280;33476;50.984;3.538;2023-05-24T10:00:14;102558.00;;;19.18;46.82
47716;BME280;33476;50.984;3.538;2023-05-24T10:02:59;102563.13;;;19.37;46.25
47716;BME280;33476;50.984;3.538;2023-05-24T10:05:25;102561.81;;;19.44;44.40
47716;BME280;33476;50.984;3.538;2023-05-24T10:07:51;102557.94;;;19.50;44.88
47716;BME280;33476;50.984;3.538;2023-05-24T10:10:17;102560.09;;;19.59;43.93
47716;BME280;33476;50.984;3.538;2023-05-24T10:12:42;102561.09;;;19.72;44.35
47716;BME280;33476;50.984;3.538;2023-05-24T10:15:11;102555.91;;;19.85;44.75
47716;BME280;33476;50.984;3.538;2023-05-24T10:17:36;102553.19;;;19.86;44.94
47716;BME280;33476;50.984;3.538;2023-05-24T10:20:02;102555.84;;;20.01;44.93
47716;BME280;33476;50.984;3.538;2023-05-24T10:22:29;102545.84;;;20.20;45.23
47716;BME280;33476;50.984;3.538;2023-05-24T10:24:56;102553.41;;;20.40;45.09
47716;BME280;33476;50.984;3.538;2023-05-24T10:27:25;102557.91;;;20.54;44.85
47716;BME280;33476;50.984;3.538;2023-05-24T10:32:42;102554.41;;;20.54;44.49
47716;BME280;33476;50.984;3.538;2023-05-24T10:35:09;102548.16;;;20.55;43.56
47716;BME280;33476;50.984;3.538;2023-05-24T10:37:36;102543.47;;;20.58;43.18
47716;BME280;33476;50.984;3.538;2023-05-24T10:40:03;102544.44;;;20.71;42.16
47716;BME280;33476;50.984;3.538;2023-05-24T10:42:30;102542.72;;;20.70;42.38
47716;BME280;33476;50.984;3.538;2023-05-24T10:44:56;102544.09;;;20.90;42.32
47716;BME280;33476;50.984;3.538;2023-05-24T10:47:24;102547.09;;;21.13;41.54
47716;BME280;33476;50.984;3.538;2023-05-24T10:49:55;102544.78;;;21.21;42.21
47716;BME280;33476;50.984;3.538;2023-05-24T10:52:43;102542.41;;;21.16;41.61
47716;BME280;33476;50.984;3.538;2023-05-24T10:55:09;102538.50;;;21.22;41.27
47716;BME280;33476;50.984;3.538;2023-05-24T10:57:36;102532.53;;;21.18;41.05
47716;BME280;33476;50.984;3.538;2023-05-24T11:03:02;102526.84;;;20.83;40.51
47716;BME280;33476;50.984;3.538;2023-05-24T11:05:47;102530.66;;;20.79;40.63
47716;BME280;33476;50.984;3.538;2023-05-24T11:10:47;102531.19;;;20.98;41.92
47716;BME280;33476;50.984;3.538;2023-05-24T11:13:12;102523.22;;;20.98;41.51
47716;BME280;33476;50.984;3.538;2023-05-24T11:15:38;102523.28;;;21.11;42.21
47716;BME280;33476;50.984;3.538;2023-05-24T11:18:13;102525.84;;;21.25;41.26
47716;BME280;33476;50.984;3.538;2023-05-24T11:20:41;102530.22;;;21.26;41.32
47716;BME280;33476;50.984;3.538;2023-05-24T11:23:08;102532.22;;;21.23;41.16
47716;BME280;33476;50.984;3.538;2023-05-24T11:25:34;102531.59;;;21.19;41.26
47716;BME280;33476;50.984;3.538;2023-05-24T11:28:01;102540.19;;;21.10;41.18
47716;BME280;33476;50.984;3.538;2023-05-24T11:30:27;102538.09;;;21.01;40.87
47716;BME280;33476;50.984;3.538;2023-05-24T11:32:52;102534.63;;;20.86;41.04
47716;BME280;33476;50.984;3.538;2023-05-24T11:35:18;102536.94;;;20.78;41.13
47716;BME280;33476;50.984;3.538;2023-05-24T11:37:44;102540.72;;;20.74;41.58
47716;BME280;33476;50.984;3.538;2023-05-24T11:40:10;102535.22;;;20.77;41.22
47716;BME280;33476;50.984;3.538;2023-05-24T11:42:36;102538.38;;;20.69;41.33
47716;BME280;33476;50.984;3.538;2023-05-24T11:45:04;102530.09;;;20.74;41.38
47716;BME280;33476;50.984;3.538;2023-05-24T11:47:36;102533.31;;;20.79;41.47
47716;BME280;33476;50.984;3.538;2023-05-24T11:50:02;102519.06;;;20.94;41.72
47716;BME280;33476;50.984;3.538;2023-05-24T11:52:28;102515.81;;;21.03;41.11
47716;BME280;33476;50.984;3.538;2023-05-24T11:54:53;102519.56;;;21.14;41.20
47716;BME280;33476;50.984;3.538;2023-05-24T11:57:28;102515.81;;;21.30;41.54
47716;BME280;33476;50.984;3.538;2023-05-24T11:59:54;102505.75;;;21.48;40.96
47716;BME280;33476;50.984;3.538;2023-05-24T12:02:22;102507.28;;;21.65;40.25
47716;BME280;33476;50.984;3.538;2023-05-24T12:04:47;102496.97;;;21.73;40.25
47716;BME280;33476;50.984;3.538;2023-05-24T12:07:13;102494.84;;;21.78;39.04
47716;BME280;33476;50.984;3.538;2023-05-24T12:09:40;102503.56;;;21.80;38.66
47716;BME280;33476;50.984;3.538;2023-05-24T12:12:05;102499.50;;;21.75;38.22
47716;BME280;33476;50.984;3.538;2023-05-24T12:14:32;102496.44;;;21.81;39.19
47716;BME280;33476;50.984;3.538;2023-05-24T12:16:58;102491.66;;;21.86;39.37
47716;BME280;33476;50.984;3.538;2023-05-24T12:19:29;102487.50;;;21.95;39.03
47716;BME280;33476;50.984;3.538;2023-05-24T12:21:56;102486.47;;;22.10;39.02
47716;BME280;33476;50.984;3.538;2023-05-24T12:24:22;102489.75;;;22.26;39.11
47716;BME280;33476;50.984;3.538;2023-05-24T12:26:48;102483.25;;;22.30;38.45
47716;BME280;33476;50.984;3.538;2023-05-24T12:29:14;102481.63;;;22.40;37.79
47716;BME280;33476;50.984;3.538;2023-05-24T12:31:41;102480.22;;;22.48;38.56
47716;BME280;33476;50.984;3.538;2023-05-24T12:34:11;102487.91;;;22.52;37.39
47716;BME280;33476;50.984;3.538;2023-05-24T12:36:37;102487.72;;;22.66;37.01
47716;BME280;33476;50.984;3.538;2023-05-24T12:39:23;102477.53;;;22.60;36.45
47716;BME280;33476;50.984;3.538;2023-05-24T12:41:55;102486.44;;;22.72;36.61
47716;BME280;33476;50.984;3.538;2023-05-24T12:44:28;102468.03;;;22.69;36.22
47716;BME280;33476;50.984;3.538;2023-05-24T12:46:55;102470.44;;;22.85;36.64
47716;BME280;33476;50.984;3.538;2023-05-24T12:49:21;102472.31;;;22.95;37.10
47716;BME280;33476;50.984;3.538;2023-05-24T12:51:47;102472.84;;;23.01;36.44
47716;BME280;33476;50.984;3.538;2023-05-24T12:54:13;102461.94;;;23.04;36.01
47716;BME280;33476;50.984;3.538;2023-05-24T12:56:38;102463.03;;;23.01;36.14
47716;BME280;33476;50.984;3.538;2023-05-24T12:59:04;102456.59;;;23.04;36.50
47716;BME280;33476;50.984;3.538;2023-05-24T13:01:29;102454.22;;;23.12;34.98
47716;BME280;33476;50.984;3.538;2023-05-24T13:03:55;102454.09;;;22.89;34.56
47716;BME280;33476;50.984;3.538;2023-05-24T13:06:20;102453.19;;;22.78;35.08
47716;BME280;33476;50.984;3.538;2023-05-24T13:08:46;102455.31;;;22.73;34.87